Time;durP1;ratioP1;P1;durP2;ratioP2;P2;SDS_P1;SDS_P2;PMS_P1;PMS_P2;Temp;Humidity;BMP_temperature;BMP_pressure;BME280_temperature;BME280_humidity;BME280_pressure;Samples;Min_cycle;Max_cycle;Signal;HPM_P1;HPM_P2
2023/03/08 00:00:58;;;;;;;19.23;8.52;;;;;;;8.77;47.26;94131.66;5106731;28;20466;-74
2023/03/08 00:03:24;;;;;;;14.18;8.43;;;;;;;8.75;47.33;94129.38;5104487;28;20068;-74
2023/03/08 00:05:49;;;;;;;14.15;8.85;;;;;;;8.70;47.46;94132.66;5106928;28;20044;-73
2023/03/08 00:08:16;;;;;;;16.15;10.00;;;;;;;8.70;47.41;94129.94;5106456;28;20427;-75
2023/03/08 00:10:41;;;;;;;18.23;9.23;;;;;;;8.68;47.04;94137.06;5104728;28;20494;-75
2023/03/08 00:13:07;;;;;;;17.20;10.52;;;;;;;8.72;47.05;94154.16;5107651;28;20060;-74
2023/03/08 00:15:32;;;;;;;16.73;9.75;;;;;;;8.76;47.03;94146.56;5104634;27;20068;-73
2023/03/08 00:17:57;;;;;;;16.63;9.27;;;;;;;8.72;46.66;94138.47;5106249;28;20405;-72
2023/03/08 00:20:23;;;;;;;14.38;9.57;;;;;;;8.68;46.55;94137.84;5104597;28;20517;-73
2023/03/08 00:22:48;;;;;;;14.10;8.70;;;;;;;8.76;46.48;94146.56;5106645;28;20020;-74
2023/03/08 00:25:17;;;;;;;16.73;9.07;;;;;;;8.71;46.65;94138.91;5106309;28;20125;-74
2023/03/08 00:27:42;;;;;;;19.90;9.00;;;;;;;8.68;46.58;94137.84;5106214;28;20035;-74
2023/03/08 00:30:11;;;;;;;17.52;9.95;;;;;;;8.69;46.86;94144.06;5107363;28;20019;-73
2023/03/08 00:32:36;;;;;;;21.75;9.45;;;;;;;8.65;46.74;94143.44;5103053;28;20024;-75
2023/03/08 00:35:02;;;;;;;17.08;9.45;;;;;;;8.71;46.48;94141.66;5106129;28;20129;-75
2023/03/08 00:37:27;;;;;;;17.63;9.18;;;;;;;8.66;46.83;94137.53;5102920;28;20023;-74
2023/03/08 00:39:53;;;;;;;14.63;9.85;;;;;;;8.66;46.75;94136.72;5107329;28;20405;-75
2023/03/08 00:42:19;;;;;;;15.93;8.35;;;;;;;8.65;46.64;94126.97;5103206;28;20047;-74
2023/03/08 00:44:45;;;;;;;14.73;8.07;;;;;;;8.60;46.50;94124.81;5104318;28;20016;-75
2023/03/08 00:47:10;;;;;;;14.30;8.18;;;;;;;8.59;46.62;94129.53;5105057;28;20088;-73
2023/03/08 00:49:37;;;;;;;16.30;8.88;;;;;;;8.60;47.13;94131.06;5105023;28;20066;-73
2023/03/08 00:52:03;;;;;;;17.10;9.38;;;;;;;8.57;46.99;94136.66;5107307;28;20027;-74
2023/03/08 00:54:29;;;;;;;16.80;8.60;;;;;;;8.52;47.56;94141.50;5102766;28;20558;-73
2023/03/08 00:56:54;;;;;;;15.45;8.38;;;;;;;8.51;47.48;94141.94;5105500;28;20120;-76
2023/03/08 00:59:20;;;;;;;16.02;9.18;;;;;;;8.44;47.55;94144.94;5104323;28;20110;-75
2023/03/08 01:01:45;;;;;;;14.07;8.40;;;;;;;8.42;47.65;94147.31;5106618;28;20445;-74
2023/03/08 01:04:11;;;;;;;16.27;8.75;;;;;;;8.39;47.87;94153.69;5103472;28;20027;-75
2023/03/08 01:06:38;;;;;;;14.65;8.00;;;;;;;8.35;47.92;94144.78;5105442;28;20066;-73
2023/03/08 01:09:03;;;;;;;15.05;9.73;;;;;;;8.30;48.04;94140.63;5088106;28;20024;-74
2023/03/08 01:11:29;;;;;;;14.68;8.85;;;;;;;8.30;47.78;94146.09;5085723;28;20028;-76
2023/03/08 01:13:54;;;;;;;16.40;9.40;;;;;;;8.30;48.14;94142.59;5106859;28;20022;-74
2023/03/08 01:16:24;;;;;;;19.30;10.32;;;;;;;8.29;47.80;94147.31;5102310;28;20028;-73
2023/03/08 01:18:50;;;;;;;17.48;10.15;;;;;;;8.23;48.09;94146.34;5104996;28;20024;-74
2023/03/08 01:21:16;;;;;;;17.60;10.27;;;;;;;8.19;48.06;94146.44;5102699;28;20050;-73
2023/03/08 01:23:41;;;;;;;20.02;10.02;;;;;;;8.15;48.13;94150.53;5105957;28;20027;-74
2023/03/08 01:26:11;;;;;;;18.98;10.82;;;;;;;8.11;48.11;94145.16;5104402;28;20020;-75
2023/03/08 01:28:36;;;;;;;17.10;11.18;;;;;;;8.10;48.49;94137.41;5103312;28;20019;-74
2023/03/08 01:31:07;;;;;;;17.17;10.75;;;;;;;8.06;48.56;94148.44;5106462;28;20058;-74
2023/03/08 01:33:33;;;;;;;18.90;10.40;;;;;;;8.05;48.45;94146.91;5102095;28;20024;-73
2023/03/08 01:36:01;;;;;;;19.60;10.98;;;;;;;8.07;48.62;94144.50;5087772;28;20398;-73
2023/03/08 01:38:26;;;;;;;17.58;10.30;;;;;;;8.05;48.81;94151.63;5102579;28;20073;-75
2023/03/08 01:40:56;;;;;;;18.95;10.73;;;;;;;8.03;48.65;94148.53;5105826;28;20512;-74
2023/03/08 01:43:30;;;;;;;19.42;10.68;;;;;;;7.97;48.80;94140.13;5103927;28;20035;-74
2023/03/08 01:46:19;;;;;;;17.42;9.77;;;;;;;7.92;49.22;94151.66;5102749;28;20478;-73
2023/03/08 01:49:14;;;;;;;15.02;8.75;;;;;;;7.89;49.21;94156.00;5104537;28;20066;-75
2023/03/08 01:51:50;;;;;;;18.95;9.48;;;;;;;7.87;48.93;94141.25;5098007;28;20036;-74
2023/03/08 01:54:24;;;;;;;19.70;9.98;;;;;;;7.84;49.45;94156.56;5103606;28;20020;-74
2023/03/08 01:56:50;;;;;;;15.68;9.80;;;;;;;7.67;49.74;94161.34;5110068;28;20184;-73
2023/03/08 01:59:17;;;;;;;19.95;10.05;;;;;;;7.63;49.95;94149.00;5106088;28;20119;-73
2023/03/08 02:01:43;;;;;;;17.15;11.48;;;;;;;7.61;49.94;94148.66;5108746;28;20092;-74
2023/03/08 02:04:08;;;;;;;20.55;12.55;;;;;;;7.62;49.81;94145.47;5088990;28;20475;-75
2023/03/08 02:06:34;;;;;;;18.10;11.82;;;;;;;7.59;49.67;94149.09;5108690;28;20024;-74
2023/03/08 02:09:03;;;;;;;20.00;11.80;;;;;;;7.59;50.27;94159.28;5106674;28;20018;-73
2023/03/08 02:11:29;;;;;;;17.77;9.68;;;;;;;7.57;50.68;94145.25;5108203;28;20047;-73
2023/03/08 02:13:55;;;;;;;15.98;10.13;;;;;;;7.47;51.11;94152.59;5108309;28;20062;-74
2023/03/08 02:16:21;;;;;;;16.20;9.45;;;;;;;7.36;51.23;94146.66;5090471;28;20024;-74
2023/03/08 02:19:01;;;;;;;15.82;9.13;;;;;;;7.25;51.64;94140.75;5092530;28;20090;-74
2023/03/08 02:21:28;;;;;;;14.57;7.78;;;;;;;7.30;52.13;94140.97;5089438;28;20027;-73
2023/03/08 02:23:54;;;;;;;13.02;6.70;;;;;;;7.27;52.26;94146.53;5092019;28;20590;-75
2023/03/08 02:26:20;;;;;;;13.50;6.75;;;;;;;7.18;52.71;94155.38;5106755;28;20020;-75
2023/03/08 02:28:45;;;;;;;13.38;6.22;;;;;;;7.15;52.67;94142.56;5090444;28;20027;-73
2023/03/08 02:31:13;;;;;;;11.88;6.68;;;;;;;7.09;52.53;94139.59;5107896;28;20347;-75
2023/03/08 02:33:39;;;;;;;9.15;6.05;;;;;;;7.13;52.56;94140.28;5108321;28;20443;-74
2023/03/08 02:36:06;;;;;;;11.65;6.05;;;;;;;6.98;52.57;94128.19;5109661;28;20026;-73
2023/03/08 02:38:32;;;;;;;10.38;6.47;;;;;;;7.13;52.31;94145.75;5105361;28;20106;-75
2023/03/08 02:40:58;;;;;;;8.98;5.40;;;;;;;7.10;52.69;94154.03;5107966;28;20054;-73
2023/03/08 02:43:23;;;;;;;13.93;6.40;;;;;;;7.02;52.82;94155.44;5105666;28;20036;-73
2023/03/08 02:45:49;;;;;;;8.80;5.65;;;;;;;6.98;52.99;94165.69;5107740;28;20493;-74
2023/03/08 02:48:15;;;;;;;9.32;5.47;;;;;;;6.97;53.19;94159.47;5089710;28;20050;-74
2023/03/08 02:50:40;;;;;;;10.63;5.95;;;;;;;6.92;53.33;94151.78;5107913;28;20027;-73
2023/03/08 02:53:06;;;;;;;12.07;5.70;;;;;;;6.97;53.45;94170.41;5109449;28;20382;-74
2023/03/08 02:55:34;;;;;;;14.80;7.55;;;;;;;6.85;53.47;94162.91;5105375;28;20039;-74
2023/03/08 02:58:00;;;;;;;11.13;6.63;;;;;;;6.78;53.66;94166.63;5107883;28;20059;-73
2023/03/08 03:00:25;;;;;;;17.15;7.85;;;;;;;6.78;53.61;94166.63;5105537;28;20101;-74
2023/03/08 03:02:51;;;;;;;11.70;6.97;;;;;;;6.86;53.15;94167.19;5107849;28;20409;-74
2023/03/08 03:05:17;;;;;;;10.50;6.53;;;;;;;6.86;53.58;94176.16;5106945;28;20180;-74
2023/03/08 03:07:43;;;;;;;9.48;6.07;;;;;;;6.78;53.48;94163.13;5089017;28;20143;-73
2023/03/08 03:10:10;;;;;;;9.95;5.88;;;;;;;6.72;53.81;94173.81;5107180;28;20442;-74
2023/03/08 03:12:35;;;;;;;14.13;7.10;;;;;;;6.69;53.92;94168.41;5105297;28;20559;-74
2023/03/08 03:15:02;;;;;;;12.35;6.30;;;;;;;6.70;53.96;94172.69;5107296;28;20027;-74
2023/03/08 03:17:28;;;;;;;12.00;5.90;;;;;;;6.70;54.01;94172.69;5104860;28;20031;-75
2023/03/08 03:19:53;;;;;;;11.05;6.72;;;;;;;6.67;54.02;94177.06;5107467;28;20016;-73
2023/03/08 03:22:19;;;;;;;9.73;6.50;;;;;;;6.69;54.03;94176.63;5105998;28;20032;-75
2023/03/08 03:24:44;;;;;;;11.32;6.72;;;;;;;6.69;53.98;94193.00;5090161;28;20408;-73
2023/03/08 03:27:09;;;;;;;10.93;6.60;;;;;;;6.70;54.06;94187.09;5107158;28;20485;-74
2023/03/08 03:29:37;;;;;;;10.88;6.00;;;;;;;6.69;53.95;94184.81;5107201;28;20126;-74
2023/03/08 03:32:02;;;;;;;9.00;5.45;;;;;;;6.64;54.13;94195.06;5106891;28;20443;-72
2023/03/08 03:34:28;;;;;;;8.45;5.43;;;;;;;6.68;54.14;94186.00;5104563;28;20023;-74
2023/03/08 03:36:54;;;;;;;9.27;5.63;;;;;;;6.63;54.04;94187.28;5108615;28;20115;-73
2023/03/08 03:39:19;;;;;;;13.95;7.65;;;;;;;6.59;54.10;94198.28;5106951;28;20028;-73
2023/03/08 03:41:45;;;;;;;12.65;7.00;;;;;;;6.64;53.80;94194.28;5106954;28;20053;-73
2023/03/08 03:44:10;;;;;;;13.38;6.63;;;;;;;6.60;53.96;94194.41;5087477;28;20494;-74
2023/03/08 03:46:36;;;;;;;16.60;7.65;;;;;;;6.65;53.23;94204.81;5106036;28;20027;-74
2023/03/08 03:49:01;;;;;;;11.07;6.35;;;;;;;6.60;53.64;94199.84;5106237;28;20032;-75
2023/03/08 03:51:26;;;;;;;13.90;7.00;;;;;;;6.60;53.63;94199.09;5106036;28;20036;-74
2023/03/08 03:53:52;;;;;;;15.32;7.85;;;;;;;6.60;52.92;94199.84;5106808;28;20027;-75
2023/03/08 03:56:20;;;;;;;13.05;8.07;;;;;;;6.61;53.39;94195.16;5105091;28;20391;-73
2023/03/08 03:58:46;;;;;;;10.38;7.55;;;;;;;6.56;53.32;94201.91;5106591;28;20043;-73
2023/03/08 04:01:24;;;;;;;15.63;7.85;;;;;;;6.52;53.31;94203.94;5103797;28;20102;-73
2023/03/08 04:03:50;;;;;;;16.15;8.50;;;;;;;6.55;53.32;94197.63;5106069;28;20027;-74
2023/03/08 04:06:21;;;;;;;16.15;8.82;;;;;;;6.49;53.58;94204.81;5105906;28;20059;-73
2023/03/08 04:08:47;;;;;;;12.52;8.43;;;;;;;6.53;53.60;94205.47;5087337;28;20035;-75
2023/03/08 04:11:16;;;;;;;13.50;8.30;;;;;;;6.50;53.71;94200.13;5106385;28;20024;-73
2023/03/08 04:13:41;;;;;;;18.75;10.50;;;;;;;6.49;53.76;94202.09;5105165;28;20038;-74
2023/03/08 04:16:11;;;;;;;14.68;8.00;;;;;;;6.50;53.94;94197.38;5106347;28;20147;-74
2023/03/08 04:18:36;;;;;;;13.60;8.93;;;;;;;6.51;53.84;94204.38;5103672;28;20035;-75
2023/03/08 04:21:02;;;;;;;11.93;8.63;;;;;;;6.50;54.04;94211.03;5107582;28;20019;-74
2023/03/08 04:23:27;;;;;;;14.95;8.15;;;;;;;6.47;53.94;94212.66;5106323;28;20024;-74
2023/03/08 04:25:53;;;;;;;20.52;10.85;;;;;;;6.50;54.27;94220.00;5106017;28;20016;-74
2023/03/08 04:28:18;;;;;;;22.65;11.68;;;;;;;6.40;54.29;94210.09;5107150;28;20034;-74
2023/03/08 04:30:43;;;;;;;20.52;12.10;;;;;;;6.37;54.36;94216.44;5103185;28;20473;-74
2023/03/08 04:33:09;;;;;;;26.20;12.50;;;;;;;6.43;54.35;94213.97;5106080;28;20481;-73
2023/03/08 04:35:34;;;;;;;20.17;12.05;;;;;;;6.39;54.28;94219.50;5104145;28;20497;-75
2023/03/08 04:38:00;;;;;;;22.10;10.57;;;;;;;6.38;54.31;94215.22;5107062;28;20497;-74
2023/03/08 04:40:26;;;;;;;18.88;12.02;;;;;;;6.40;54.28;94215.56;5103459;28;20504;-75
2023/03/08 04:42:51;;;;;;;18.27;10.48;;;;;;;6.45;54.23;94206.84;5106158;28;20032;-73
2023/03/08 04:45:17;;;;;;;22.13;11.93;;;;;;;6.44;54.18;94218.22;5105893;28;20026;-75
2023/03/08 04:47:42;;;;;;;19.42;11.07;;;;;;;6.45;54.10;94220.50;5104512;28;20055;-74
2023/03/08 04:50:08;;;;;;;19.50;11.82;;;;;;;6.48;54.11;94221.59;5105758;28;20032;-74
2023/03/08 04:52:34;;;;;;;25.10;13.52;;;;;;;6.47;54.06;94222.81;5101925;28;20019;-74
2023/03/08 04:54:59;;;;;;;29.08;15.32;;;;;;;6.45;54.18;94223.25;5106609;28;20024;-74
2023/03/08 04:57:25;;;;;;;34.63;19.35;;;;;;;6.52;53.99;94230.47;5102024;28;20032;-74
2023/03/08 04:59:50;;;;;;;35.80;18.38;;;;;;;6.51;54.10;94229.72;5088238;28;20029;-75
2023/03/08 05:02:16;;;;;;;29.90;17.30;;;;;;;6.50;53.93;94224.69;5104836;28;20538;-75
2023/03/08 05:04:41;;;;;;;26.23;15.82;;;;;;;6.61;53.97;94225.19;5103475;28;20028;-74
2023/03/08 05:07:07;;;;;;;22.67;13.30;;;;;;;6.63;53.73;94228.25;5087676;28;20028;-73
2023/03/08 05:09:32;;;;;;;21.63;12.55;;;;;;;6.61;54.04;94245.09;5101674;28;20409;-73
2023/03/08 05:11:58;;;;;;;25.95;14.02;;;;;;;6.61;54.06;94244.31;5087794;28;20051;-74
2023/03/08 05:14:24;;;;;;;20.25;11.70;;;;;;;6.67;54.11;94242.59;5101338;28;20027;-73
2023/03/08 05:16:49;;;;;;;16.42;9.50;;;;;;;6.64;54.18;94252.41;5106053;28;20068;-75
2023/03/08 05:19:15;;;;;;;15.30;8.10;;;;;;;6.68;54.31;94249.59;5102530;28;20023;-75
2023/03/08 05:21:40;;;;;;;18.33;10.48;;;;;;;6.70;54.25;94249.16;5086902;28;20035;-72
2023/03/08 05:24:06;;;;;;;23.15;10.65;;;;;;;6.72;54.30;94263.19;5103997;28;20031;-73
2023/03/08 05:26:31;;;;;;;19.13;11.48;;;;;;;6.72;54.26;94263.19;5102379;28;20080;-75
2023/03/08 05:29:00;;;;;;;18.35;10.48;;;;;;;6.73;54.26;94264.72;5106214;28;20101;-72
2023/03/08 05:31:26;;;;;;;18.33;8.75;;;;;;;6.73;54.27;94270.16;5101337;28;20418;-74
2023/03/08 05:33:52;;;;;;;17.80;10.15;;;;;;;6.75;54.01;94268.53;5104723;28;20030;-73
2023/03/08 05:36:18;;;;;;;23.80;10.57;;;;;;;6.73;53.92;94264.72;5103270;28;20066;-73
2023/03/08 05:38:44;;;;;;;16.60;9.25;;;;;;;6.76;54.37;94275.53;5104561;28;20475;-73
2023/03/08 05:41:12;;;;;;;17.65;9.88;;;;;;;6.80;53.96;94283.66;5104454;28;20067;-73
2023/03/08 05:43:37;;;;;;;18.30;9.05;;;;;;;6.74;54.24;94282.63;5105100;28;20430;-73
2023/03/08 05:46:06;;;;;;;14.27;9.30;;;;;;;6.75;54.05;94284.16;5090823;28;20038;-74
2023/03/08 05:48:33;;;;;;;16.90;9.80;;;;;;;6.73;54.04;94286.56;5105301;28;20092;-73
2023/03/08 05:51:06;;;;;;;15.55;10.45;;;;;;;6.69;54.29;94289.38;5105308;28;20055;-72
2023/03/08 05:53:32;;;;;;;24.50;10.32;;;;;;;6.74;54.15;94294.31;5085033;28;20127;-76
2023/03/08 05:56:08;;;;;;;16.48;9.88;;;;;;;6.76;54.21;94296.63;5087832;28;20107;-73
2023/03/08 05:58:35;;;;;;;18.52;11.55;;;;;;;6.86;54.09;94304.56;5103692;28;20046;-73
2023/03/08 06:01:07;;;;;;;24.13;16.75;;;;;;;6.94;54.19;94296.97;5103233;28;20015;-74
2023/03/08 06:03:33;;;;;;;41.65;24.10;;;;;;;7.00;53.67;94295.25;5105894;28;20043;-76
2023/03/08 06:05:58;;;;;;;50.72;33.88;;;;;;;7.03;53.51;94305.31;5103394;28;20092;-74
2023/03/08 06:08:24;;;;;;;53.90;38.75;;;;;;;7.06;53.27;94309.16;5104935;28;20448;-74
2023/03/08 06:10:49;;;;;;;70.75;43.75;;;;;;;7.14;52.84;94299.56;5084781;28;20024;-74
2023/03/08 06:13:14;;;;;;;53.58;31.33;;;;;;;7.21;53.00;94302.13;5105964;28;20030;-73
2023/03/08 06:15:40;;;;;;;42.17;29.52;;;;;;;7.27;52.85;94307.84;5104058;28;20053;-73
2023/03/08 06:18:05;;;;;;;56.38;35.00;;;;;;;7.31;52.85;94314.00;5103532;28;20462;-74
2023/03/08 06:20:31;;;;;;;58.72;36.92;;;;;;;7.42;52.58;94317.97;5104324;28;20127;-75
2023/03/08 06:22:57;;;;;;;58.65;37.70;;;;;;;7.51;52.38;94309.13;5102941;28;20031;-76
2023/03/08 06:25:22;;;;;;;51.90;32.15;;;;;;;7.66;51.98;94312.25;5087905;28;20463;-75
2023/03/08 06:27:47;;;;;;;43.25;26.98;;;;;;;7.69;52.04;94319.63;5102906;28;20401;-74
2023/03/08 06:30:13;;;;;;;43.92;27.90;;;;;;;7.84;51.79;94322.72;5105866;28;20062;-74
2023/03/08 06:32:38;;;;;;;50.17;29.10;;;;;;;7.93;51.49;94323.63;5102813;28;20023;-74
2023/03/08 06:35:04;;;;;;;42.97;24.85;;;;;;;8.01;51.29;94326.91;5105921;28;20051;-74
2023/03/08 06:37:34;;;;;;;43.20;24.00;;;;;;;8.09;50.99;94320.03;5103362;28;20028;-75
2023/03/08 06:40:00;;;;;;;35.10;22.48;;;;;;;8.18;51.21;94333.06;5102562;28;20050;-76
2023/03/08 06:42:26;;;;;;;39.35;23.90;;;;;;;8.29;51.00;94343.72;5089176;28;20085;-73
2023/03/08 06:44:51;;;;;;;38.70;23.35;;;;;;;8.36;50.71;94347.03;5105083;28;20023;-74
2023/03/08 06:47:16;;;;;;;38.78;22.95;;;;;;;8.44;50.51;94353.84;5109511;28;20681;-74
2023/03/08 06:49:42;;;;;;;55.83;30.25;;;;;;;8.50;50.00;94348.59;5105406;28;20056;-74
2023/03/08 06:52:07;;;;;;;65.13;33.95;;;;;;;8.65;49.51;94360.66;5109810;28;20474;-74
2023/03/08 06:54:33;;;;;;;64.50;32.75;;;;;;;8.73;49.45;94361.97;5109148;28;20026;-74
2023/03/08 06:56:58;;;;;;;52.38;29.38;;;;;;;8.83;48.73;94362.88;5107069;28;20106;-72
2023/03/08 06:59:23;;;;;;;51.30;30.33;;;;;;;8.99;48.57;94375.66;5109112;28;20016;-74
2023/03/08 07:01:49;;;;;;;53.92;30.23;;;;;;;9.17;48.02;94370.38;5106663;28;20111;-74
2023/03/08 07:04:16;;;;;;;49.35;23.55;;;;;;;9.38;47.51;94376.38;5090715;28;20027;-74
2023/03/08 07:06:42;;;;;;;32.40;18.35;;;;;;;9.53;47.22;94371.97;5106354;28;20035;-74
2023/03/08 07:09:07;;;;;;;26.30;14.95;;;;;;;9.80;46.51;94382.38;5107696;28;20077;-74
2023/03/08 07:11:33;;;;;;;18.63;11.55;;;;;;;9.97;46.12;94383.75;5105361;28;20541;-74
2023/03/08 07:13:58;;;;;;;20.88;11.38;;;;;;;10.08;45.85;94377.88;5108533;28;20072;-73
2023/03/08 07:16:24;;;;;;;18.10;10.93;;;;;;;10.21;45.64;94381.34;5108246;28;20110;-74
2023/03/08 07:18:49;;;;;;;19.80;10.40;;;;;;;10.35;45.42;94382.81;5107170;28;20131;-73
2023/03/08 07:21:14;;;;;;;17.25;10.52;;;;;;;10.34;45.28;94379.31;5108957;28;20110;-74
2023/03/08 07:23:40;;;;;;;16.42;10.10;;;;;;;10.31;45.18;94385.69;5104668;28;20027;-72
2023/03/08 07:26:07;;;;;;;22.52;11.00;;;;;;;10.38;45.34;94376.44;5107110;28;20076;-74
2023/03/08 07:28:32;;;;;;;21.35;10.60;;;;;;;10.51;44.80;94385.38;5105830;28;20454;-74
2023/03/08 07:30:58;;;;;;;20.60;11.27;;;;;;;10.63;44.77;94390.00;5108350;28;20027;-74
2023/03/08 07:33:23;;;;;;;23.15;12.80;;;;;;;10.75;44.49;94380.16;5105135;28;20027;-74
2023/03/08 07:35:49;;;;;;;21.15;11.70;;;;;;;10.96;44.04;94389.56;5107537;28;20030;-74
2023/03/08 07:38:15;;;;;;;18.23;11.50;;;;;;;11.10;43.32;94388.22;5108132;28;20367;-74
2023/03/08 07:40:40;;;;;;;15.77;10.82;;;;;;;11.33;43.30;94379.44;5104776;28;20485;-75
2023/03/08 07:43:06;;;;;;;19.23;10.38;;;;;;;11.54;42.76;94385.28;5106896;28;20023;-75
2023/03/08 07:45:32;;;;;;;17.00;9.55;;;;;;;11.72;42.32;94368.78;5103885;28;20035;-76
2023/03/08 07:47:58;;;;;;;16.25;8.88;;;;;;;11.86;42.28;94373.72;5090043;28;20020;-76
2023/03/08 07:50:24;;;;;;;13.48;8.13;;;;;;;11.88;42.05;94385.06;5104693;28;20055;-77
2023/03/08 07:52:49;;;;;;;16.25;8.70;;;;;;;12.04;41.83;94388.72;5089295;28;20027;-76
2023/03/08 07:55:15;;;;;;;13.75;8.15;;;;;;;12.20;41.53;94386.41;5105269;28;20024;-75
2023/03/08 07:57:40;;;;;;;11.77;7.88;;;;;;;12.29;41.10;94388.41;5105560;28;20023;-77
2023/03/08 08:00:06;;;;;;;13.52;8.57;;;;;;;12.35;41.09;94383.81;5110275;28;20065;-79
2023/03/08 08:02:33;;;;;;;13.40;8.15;;;;;;;12.50;40.90;94381.16;5104179;28;20119;-77
2023/03/08 08:04:59;;;;;;;15.45;8.18;;;;;;;12.66;40.81;94380.81;5106210;28;20034;-77
2023/03/08 08:07:24;;;;;;;10.70;7.18;;;;;;;12.77;40.78;94378.34;5104481;28;20015;-76
2023/03/08 08:09:50;;;;;;;12.15;7.35;;;;;;;12.88;40.29;94375.09;5108580;28;20461;-77
2023/03/08 08:12:15;;;;;;;14.15;7.68;;;;;;;13.06;40.03;94395.56;5105325;28;20506;-76
2023/03/08 08:14:41;;;;;;;10.25;6.88;;;;;;;13.20;39.47;94383.88;5106226;28;20438;-74
2023/03/08 08:17:06;;;;;;;12.10;7.13;;;;;;;13.24;39.14;94381.72;5105502;28;20027;-76
2023/03/08 08:19:32;;;;;;;12.65;8.23;;;;;;;13.31;39.14;94392.44;5104573;28;20042;-77
2023/03/08 08:21:57;;;;;;;15.45;8.43;;;;;;;13.42;39.37;94384.41;5106292;28;20028;-75
2023/03/08 08:24:23;;;;;;;11.23;7.75;;;;;;;13.60;38.69;94385.53;5086574;28;20459;-76
2023/03/08 08:26:48;;;;;;;11.95;7.55;;;;;;;13.75;38.55;94389.09;5107847;28;20549;-77
2023/03/08 08:29:14;;;;;;;13.55;8.10;;;;;;;13.86;38.17;94385.81;5104216;27;20415;-76
2023/03/08 08:31:41;;;;;;;13.77;8.25;;;;;;;14.29;37.40;94400.97;5088898;28;20062;-76
2023/03/08 08:34:07;;;;;;;14.38;8.63;;;;;;;14.43;37.04;94400.22;5103815;28;20019;-77
2023/03/08 08:36:32;;;;;;;14.10;8.68;;;;;;;14.61;36.96;94393.78;5104445;28;20578;-78
2023/03/08 08:38:57;;;;;;;15.23;7.63;;;;;;;15.02;36.31;94394.72;5105151;28;20077;-77
2023/03/08 08:41:23;;;;;;;15.02;8.38;;;;;;;15.50;35.43;94402.00;5104076;28;20395;-80
2023/03/08 08:43:48;;;;;;;11.48;7.38;;;;;;;15.81;34.80;94393.91;5088511;28;20027;-78
2023/03/08 08:46:15;;;;;;;18.42;8.38;;;;;;;16.12;34.10;94393.28;5085834;28;20027;-79
2023/03/08 08:48:41;;;;;;;12.32;7.75;;;;;;;16.02;33.86;94397.44;5088362;28;20474;-79
2023/03/08 08:51:10;;;;;;;14.77;7.45;;;;;;;15.99;33.95;94381.00;5101880;28;20031;-75
2023/03/08 08:53:35;;;;;;;14.98;8.85;;;;;;;16.01;34.25;94382.06;5105170;28;20058;-76
2023/03/08 08:56:16;;;;;;;14.82;8.10;;;;;;;16.09;34.22;94387.94;5104517;28;20388;-78
2023/03/08 08:58:41;;;;;;;11.93;7.85;;;;;;;16.09;34.14;94393.50;5085855;28;20020;-74
2023/03/08 09:01:18;;;;;;;15.20;9.45;;;;;;;15.88;34.35;94403.81;5104699;28;20028;-76
2023/03/08 09:03:45;;;;;;;12.70;7.32;;;;;;;15.79;34.55;94398.41;5102591;28;20027;-74
2023/03/08 09:06:11;;;;;;;15.13;7.85;;;;;;;15.76;34.74;94396.59;5105168;28;20468;-76
2023/03/08 09:08:37;;;;;;;17.52;9.07;;;;;;;15.74;35.04;94404.63;5086085;28;20028;-76
2023/03/08 09:11:07;;;;;;;10.20;7.82;;;;;;;15.65;35.12;94400.75;5087277;28;20367;-74
2023/03/08 09:13:33;;;;;;;17.23;7.90;;;;;;;15.60;35.28;94395.13;5088553;28;20117;-75
2023/03/08 09:15:59;;;;;;;10.07;7.07;;;;;;;15.55;35.60;94381.94;5105695;28;20115;-75
2023/03/08 09:18:27;;;;;;;9.18;6.50;;;;;;;15.59;35.23;94393.56;5105058;28;20095;-75
2023/03/08 09:20:53;;;;;;;15.32;7.68;;;;;;;15.55;35.50;94387.47;5102695;28;20090;-74
2023/03/08 09:23:19;;;;;;;16.67;7.32;;;;;;;15.68;35.12;94384.41;5105095;28;20043;-75
2023/03/08 09:25:44;;;;;;;14.25;7.93;;;;;;;15.84;35.11;94383.88;5102017;28;20054;-74
2023/03/08 09:28:11;;;;;;;13.35;6.60;;;;;;;15.99;35.06;94373.47;5106214;28;20297;-74
2023/03/08 09:30:36;;;;;;;13.82;7.45;;;;;;;16.11;34.67;94386.19;5103766;28;20024;-74
2023/03/08 09:33:02;;;;;;;17.70;8.60;;;;;;;16.20;34.46;94391.63;5104865;28;20038;-76
2023/03/08 09:35:29;;;;;;;12.15;8.02;;;;;;;16.24;34.08;94379.56;5104737;28;20023;-75
2023/03/08 09:37:55;;;;;;;15.55;7.82;;;;;;;16.39;33.85;94371.88;5102398;28;20042;-75
2023/03/08 09:40:23;;;;;;;13.43;7.95;;;;;;;16.53;33.06;94373.06;5104893;28;20445;-76
2023/03/08 09:42:48;;;;;;;11.68;7.07;;;;;;;17.03;32.62;94375.53;5102619;28;20576;-76
2023/03/08 09:45:26;;;;;;;10.80;7.07;;;;;;;17.14;32.43;94378.41;5087880;28;20023;-76
2023/03/08 09:48:06;;;;;;;10.25;6.80;;;;;;;17.44;31.96;94362.97;5103899;28;20169;-74
2023/03/08 09:50:36;;;;;;;14.27;7.18;;;;;;;17.48;32.04;94371.06;5102292;28;20046;-75
2023/03/08 09:53:09;;;;;;;11.13;6.85;;;;;;;18.27;31.07;94364.66;5104894;28;20417;-76
2023/03/08 09:55:36;;;;;;;15.10;6.60;;;;;;;18.83;30.15;94375.19;5101750;28;20028;-75
2023/03/08 09:58:10;;;;;;;18.05;7.78;;;;;;;19.18;29.17;94363.56;5104829;28;20044;-74
2023/03/08 10:00:37;;;;;;;12.25;6.90;;;;;;;19.35;28.82;94366.34;5103098;28;20019;-74
2023/03/08 10:03:11;;;;;;;13.52;6.20;;;;;;;19.93;28.63;94355.34;5086750;28;20490;-75
2023/03/08 10:05:46;;;;;;;10.98;6.40;;;;;;;20.80;27.50;94353.91;5106079;28;20028;-75
2023/03/08 10:08:17;;;;;;;9.77;5.40;;;;;;;21.26;26.70;94345.94;5103690;28;20028;-74
2023/03/08 10:11:00;;;;;;;16.25;6.05;;;;;;;21.47;26.50;94356.19;5106107;28;20032;-75
2023/03/08 10:13:35;;;;;;;;;;;;;;;22.33;25.60;94342.84;5102801;28;20030;-75
2023/03/08 10:16:13;;;;;;;9.23;4.55;;;;;;;23.17;24.50;94339.63;5087666;28;19999;-75
2023/03/08 10:18:51;;;;;;;6.32;3.90;;;;;;;24.11;23.21;94344.81;5109759;28;20027;-75
2023/03/08 10:21:20;;;;;;;6.32;3.83;;;;;;;24.66;22.16;94340.66;5107448;28;20481;-75
2023/03/08 10:23:47;;;;;;;12.07;5.07;;;;;;;24.91;21.83;94339.09;5108143;28;20472;-75
2023/03/08 10:26:14;;;;;;;13.20;6.20;;;;;;;25.27;21.26;94341.34;5105930;28;20035;-74
2023/03/08 10:28:40;;;;;;;9.45;4.70;;;;;;;25.69;20.65;94339.25;5107952;28;20034;-74
2023/03/08 10:31:21;;;;;;;7.57;4.35;;;;;;;25.64;20.62;94346.53;5107100;28;20024;-74
2023/03/08 10:33:49;;;;;;;5.97;3.85;;;;;;;26.00;20.84;94340.25;5105844;28;20019;-76
2023/03/08 10:36:20;;;;;;;13.18;6.78;;;;;;;25.74;20.73;94332.75;5090998;28;20023;-74
2023/03/08 10:39:10;;;;;;;10.23;5.65;;;;;;;25.19;20.92;94332.09;5105151;28;20036;-74
2023/03/08 10:41:56;;;;;;;8.43;3.70;;;;;;;24.68;21.33;94341.63;5099858;28;20047;-76
2023/03/08 10:44:29;;;;;;;9.35;4.32;;;;;;;24.21;21.83;94333.16;5107782;28;20035;-75
2023/03/08 10:46:54;;;;;;;6.93;4.00;;;;;;;23.84;22.36;94332.84;5105407;28;20039;-74
2023/03/08 10:49:22;;;;;;;5.72;3.55;;;;;;;23.69;22.22;94326.25;5107891;28;20469;-74
2023/03/08 10:51:57;;;;;;;7.82;3.42;;;;;;;23.21;22.20;94323.22;5104970;28;20097;-73
2023/03/08 10:54:22;;;;;;;7.75;3.83;;;;;;;22.78;22.82;94320.56;5108141;28;20105;-74
2023/03/08 10:56:59;;;;;;;4.53;2.90;;;;;;;22.39;23.51;94315.53;5107768;27;20429;-74
2023/03/08 10:59:31;;;;;;;5.50;2.90;;;;;;;21.80;23.68;94323.59;5106630;28;20031;-75
2023/03/08 11:02:07;;;;;;;6.65;2.53;;;;;;;21.25;24.19;94311.66;5107875;28;20019;-74
2023/03/08 11:04:32;;;;;;;5.68;2.67;;;;;;;20.87;25.07;94308.69;5104950;28;20073;-75
2023/03/08 11:07:09;;;;;;;5.03;3.20;;;;;;;20.74;25.15;94297.34;5107481;28;20120;-74
2023/03/08 11:09:35;;;;;;;6.65;2.08;;;;;;;;;;5105299;28;20043;-74
2023/03/08 11:12:01;;;;;;;4.50;2.00;;;;;;;20.69;25.30;94301.69;5108799;28;20024;-74
2023/03/08 11:14:28;;;;;;;3.15;1.92;;;;;;;21.03;24.57;94292.28;5108843;28;20413;-74
2023/03/08 11:17:12;;;;;;;4.00;2.22;;;;;;;22.71;22.84;94291.13;5106284;28;20098;-75
2023/03/08 11:19:44;;;;;;;4.35;2.10;;;;;;;23.40;21.69;94288.72;5107372;28;20410;-75
2023/03/08 11:22:34;;;;;;;5.38;1.92;;;;;;;24.29;20.87;94289.06;5106422;28;20028;-75
2023/03/08 11:25:18;;;;;;;3.80;2.10;;;;;;;23.72;22.00;94275.41;5108242;27;20023;-75
2023/03/08 11:28:08;;;;;;;3.83;2.65;;;;;;;23.04;22.96;94272.28;5107048;28;20031;-75
2023/03/08 11:30:52;;;;;;;6.55;2.58;;;;;;;23.11;23.03;94268.09;5104578;28;20118;-74